sensor_id;sensor_type;location;lat;lon;timestamp;pressure;altitude;pressure_sealevel;temperature;humidity
21547;BME280;41275;51.912;4.388;2023-05-07T00:01:43;101593.66;;;22.36;48.82
21547;BME280;41275;51.912;4.388;2023-05-07T00:07:04;101588.16;;;22.22;49.17
21547;BME280;41275;51.912;4.388;2023-05-07T00:12:26;101600.03;;;22.21;49.12
21547;BME280;41275;51.912;4.388;2023-05-07T00:17:47;101596.47;;;22.25;48.90
21547;BME280;41275;51.912;4.388;2023-05-07T00:23:09;101586.78;;;22.24;48.53
21547;BME280;41275;51.912;4.388;2023-05-07T00:28:30;101587.28;;;22.26;48.37
21547;BME280;41275;51.912;4.388;2023-05-07T00:33:51;101580.06;;;22.22;48.69
21547;BME280;41275;51.912;4.388;2023-05-07T00:39:12;101579.03;;;22.18;48.74
21547;BME280;41275;51.912;4.388;2023-05-07T00:44:33;101570.22;;;22.07;49.15
21547;BME280;41275;51.912;4.388;2023-05-07T00:49:55;101582.66;;;22.03;49.54
21547;BME280;41275;51.912;4.388;2023-05-07T00:55:21;101575.09;;;22.05;49.49
21547;BME280;41275;51.912;4.388;2023-05-07T01:00:42;101567.75;;;22.11;49.57
21547;BME280;41275;51.912;4.388;2023-05-07T01:06:04;101570.09;;;22.22;49.59
21547;BME280;41275;51.912;4.388;2023-05-07T01:11:27;101562.69;;;22.33;49.64
21547;BME280;41275;51.912;4.388;2023-05-07T01:16:48;101555.00;;;22.45;49.36
21547;BME280;41275;51.912;4.388;2023-05-07T01:22:13;101556.03;;;22.49;49.25
21547;BME280;41275;51.912;4.388;2023-05-07T01:27:36;101553.56;;;22.53;49.36
21547;BME280;41275;51.912;4.388;2023-05-07T01:33:02;101557.53;;;22.55;49.21
21547;BME280;41275;51.912;4.388;2023-05-07T01:38:25;101549.47;;;22.55;49.63
21547;BME280;41275;51.912;4.388;2023-05-07T01:43:48;101556.41;;;22.62;49.72
21547;BME280;41275;51.912;4.388;2023-05-07T01:49:11;101551.59;;;22.59;49.80
21547;BME280;41275;51.912;4.388;2023-05-07T01:54:32;101554.81;;;22.61;49.99
21547;BME280;41275;51.912;4.388;2023-05-07T01:59:53;101550.06;;;22.52;49.64
21547;BME280;41275;51.912;4.388;2023-05-07T02:05:14;101540.25;;;22.38;50.53
21547;BME280;41275;51.912;4.388;2023-05-07T02:10:35;101545.66;;;22.38;50.51
21547;BME280;41275;51.912;4.388;2023-05-07T02:15:57;101553.03;;;22.51;50.53
21547;BME280;41275;51.912;4.388;2023-05-07T02:21:18;101552.97;;;22.56;50.44
21547;BME280;41275;51.912;4.388;2023-05-07T02:26:40;101550.72;;;22.63;50.24
21547;BME280;41275;51.912;4.388;2023-05-07T02:32:02;101549.69;;;22.59;50.14
21547;BME280;41275;51.912;4.388;2023-05-07T02:37:23;101556.97;;;22.59;50.13
21547;BME280;41275;51.912;4.388;2023-05-07T02:42:44;101554.59;;;22.57;50.40
21547;BME280;41275;51.912;4.388;2023-05-07T02:48:08;101545.81;;;22.46;50.04
21547;BME280;41275;51.912;4.388;2023-05-07T02:53:29;101555.16;;;22.54;50.18
21547;BME280;41275;51.912;4.388;2023-05-07T02:58:50;101560.78;;;22.58;49.94
21547;BME280;41275;51.912;4.388;2023-05-07T03:04:11;101561.00;;;22.61;49.88
21547;BME280;41275;51.912;4.388;2023-05-07T03:09:33;101561.88;;;22.57;49.73
21547;BME280;41275;51.912;4.388;2023-05-07T03:14:54;101557.63;;;22.50;49.86
21547;BME280;41275;51.912;4.388;2023-05-07T03:20:15;101546.59;;;22.47;49.74
21547;BME280;41275;51.912;4.388;2023-05-07T03:25:37;101557.34;;;22.52;49.92
21547;BME280;41275;51.912;4.388;2023-05-07T03:30:58;101549.41;;;22.61;49.69
21547;BME280;41275;51.912;4.388;2023-05-07T03:36:20;101553.94;;;22.65;49.38
21547;BME280;41275;51.912;4.388;2023-05-07T03:41:41;101545.63;;;22.62;49.04
21547;BME280;41275;51.912;4.388;2023-05-07T03:47:03;101556.97;;;22.59;49.35
21547;BME280;41275;51.912;4.388;2023-05-07T03:52:24;101557.84;;;22.54;49.30
21547;BME280;41275;51.912;4.388;2023-05-07T03:57:46;101554.44;;;22.48;49.39
21547;BME280;41275;51.912;4.388;2023-05-07T04:03:08;101561.41;;;22.49;49.09
21547;BME280;41275;51.912;4.388;2023-05-07T04:08:29;101577.03;;;22.52;49.24
21547;BME280;41275;51.912;4.388;2023-05-07T04:13:50;101571.97;;;22.46;49.37
21547;BME280;41275;51.912;4.388;2023-05-07T04:19:11;101574.97;;;22.44;49.32
21547;BME280;41275;51.912;4.388;2023-05-07T04:24:33;101574.97;;;22.44;49.46
21547;BME280;41275;51.912;4.388;2023-05-07T04:29:54;101577.38;;;22.46;49.36
21547;BME280;41275;51.912;4.388;2023-05-07T04:35:16;101571.41;;;22.49;49.69
21547;BME280;41275;51.912;4.388;2023-05-07T04:40:38;101569.50;;;22.49;49.31
21547;BME280;41275;51.912;4.388;2023-05-07T04:46:00;101567.19;;;22.62;49.44
21547;BME280;41275;51.912;4.388;2023-05-07T04:51:21;101575.22;;;22.67;49.31
21547;BME280;41275;51.912;4.388;2023-05-07T04:56:42;101580.56;;;22.72;49.34
21547;BME280;41275;51.912;4.388;2023-05-07T05:02:04;101577.56;;;22.73;49.21
21547;BME280;41275;51.912;4.388;2023-05-07T05:07:25;101585.81;;;22.82;48.97
21547;BME280;41275;51.912;4.388;2023-05-07T05:12:46;101590.34;;;22.87;48.94
21547;BME280;41275;51.912;4.388;2023-05-07T05:18:07;101580.88;;;22.89;48.43
21547;BME280;41275;51.912;4.388;2023-05-07T05:23:28;101592.06;;;23.01;48.76
21547;BME280;41275;51.912;4.388;2023-05-07T05:28:50;101599.72;;;23.13;48.52
21547;BME280;41275;51.912;4.388;2023-05-07T05:34:11;101610.66;;;23.22;48.43
21547;BME280;41275;51.912;4.388;2023-05-07T05:39:32;101615.72;;;23.28;48.35
21547;BME280;41275;51.912;4.388;2023-05-07T05:44:53;101613.16;;;23.37;48.11
21547;BME280;41275;51.912;4.388;2023-05-07T05:50:14;101612.78;;;23.44;47.74
21547;BME280;41275;51.912;4.388;2023-05-07T05:55:36;101626.50;;;23.47;47.86
21547;BME280;41275;51.912;4.388;2023-05-07T06:00:57;101617.81;;;23.50;47.83
21547;BME280;41275;51.912;4.388;2023-05-07T06:06:19;101629.25;;;23.61;47.76
21547;BME280;41275;51.912;4.388;2023-05-07T06:11:40;101628.03;;;23.72;47.79
21547;BME280;41275;51.912;4.388;2023-05-07T06:17:02;101630.16;;;23.75;47.81
21547;BME280;41275;51.912;4.388;2023-05-07T06:22:23;101629.19;;;23.99;47.52
21547;BME280;41275;51.912;4.388;2023-05-07T06:27:44;101622.09;;;24.17;47.44
21547;BME280;41275;51.912;4.388;2023-05-07T06:33:05;101614.94;;;24.26;47.40
21547;BME280;41275;51.912;4.388;2023-05-07T06:38:26;101624.22;;;24.20;47.34
21547;BME280;41275;51.912;4.388;2023-05-07T06:43:50;101617.00;;;24.02;47.67
21547;BME280;41275;51.912;4.388;2023-05-07T06:49:12;101630.81;;;24.00;47.95
21547;BME280;41275;51.912;4.388;2023-05-07T06:54:34;101630.63;;;24.10;47.39
21547;BME280;41275;51.912;4.388;2023-05-07T06:59:56;101626.50;;;24.45;47.31
21547;BME280;41275;51.912;4.388;2023-05-07T07:05:17;101635.38;;;24.87;46.57
21547;BME280;41275;51.912;4.388;2023-05-07T07:10:38;101627.22;;;25.15;45.47
21547;BME280;41275;51.912;4.388;2023-05-07T07:16:00;101637.94;;;25.56;44.57
21547;BME280;41275;51.912;4.388;2023-05-07T07:21:21;101637.16;;;26.09;43.72
21547;BME280;41275;51.912;4.388;2023-05-07T07:26:42;101642.06;;;25.99;43.31
21547;BME280;41275;51.912;4.388;2023-05-07T07:32:03;101636.84;;;25.80;43.19
21547;BME280;41275;51.912;4.388;2023-05-07T07:37:25;101641.00;;;25.63;43.35
21547;BME280;41275;51.912;4.388;2023-05-07T07:42:46;101637.84;;;25.70;43.62
21547;BME280;41275;51.912;4.388;2023-05-07T07:48:07;101640.44;;;25.98;43.63
21547;BME280;41275;51.912;4.388;2023-05-07T07:53:28;101640.94;;;26.31;43.63
21547;BME280;41275;51.912;4.388;2023-05-07T07:58:50;101643.28;;;26.55;43.16
21547;BME280;41275;51.912;4.388;2023-05-07T08:04:11;101644.44;;;26.71;42.58
21547;BME280;41275;51.912;4.388;2023-05-07T08:09:32;101640.31;;;26.82;42.22
21547;BME280;41275;51.912;4.388;2023-05-07T08:14:54;101649.44;;;27.04;42.29
21547;BME280;41275;51.912;4.388;2023-05-07T08:20:15;101663.03;;;27.04;42.22
21547;BME280;41275;51.912;4.388;2023-05-07T08:25:36;101665.19;;;27.33;41.98
21547;BME280;41275;51.912;4.388;2023-05-07T08:30:58;101657.50;;;27.35;42.06
21547;BME280;41275;51.912;4.388;2023-05-07T08:36:21;101666.44;;;27.61;41.35
21547;BME280;41275;51.912;4.388;2023-05-07T08:41:44;101679.03;;;28.09;40.42
21547;BME280;41275;51.912;4.388;2023-05-07T08:47:07;101671.16;;;28.17;40.10
21547;BME280;41275;51.912;4.388;2023-05-07T08:52:28;101681.94;;;28.51;39.62
21547;BME280;41275;51.912;4.388;2023-05-07T08:57:50;101674.03;;;28.67;39.00
21547;BME280;41275;51.912;4.388;2023-05-07T09:03:11;101676.91;;;28.71;38.37
21547;BME280;41275;51.912;4.388;2023-05-07T09:08:34;101675.13;;;29.04;38.34
21547;BME280;41275;51.912;4.388;2023-05-07T09:13:57;101695.41;;;28.86;38.11
21547;BME280;41275;51.912;4.388;2023-05-07T09:19:24;101684.16;;;28.87;38.25
21547;BME280;41275;51.912;4.388;2023-05-07T09:24:49;101691.47;;;28.96;37.99
21547;BME280;41275;51.912;4.388;2023-05-07T09:30:11;101692.28;;;28.96;38.16
21547;BME280;41275;51.912;4.388;2023-05-07T09:35:32;101688.50;;;28.89;37.79
21547;BME280;41275;51.912;4.388;2023-05-07T09:41:11;101701.31;;;28.88;37.89
21547;BME280;41275;51.912;4.388;2023-05-07T09:46:33;101688.22;;;29.11;37.93
21547;BME280;41275;51.912;4.388;2023-05-07T09:51:58;101693.53;;;29.49;36.73
21547;BME280;41275;51.912;4.388;2023-05-07T09:57:21;101702.59;;;29.95;35.58
21547;BME280;41275;51.912;4.388;2023-05-07T10:02:45;101701.78;;;30.28;34.62
21547;BME280;41275;51.912;4.388;2023-05-07T10:08:09;101697.94;;;30.53;33.87
21547;BME280;41275;51.912;4.388;2023-05-07T10:13:32;101687.72;;;30.50;33.24
21547;BME280;41275;51.912;4.388;2023-05-07T10:18:56;101692.34;;;30.25;33.62
21547;BME280;41275;51.912;4.388;2023-05-07T10:24:21;101694.50;;;30.32;33.42
21547;BME280;41275;51.912;4.388;2023-05-07T10:30:04;101697.91;;;30.41;32.85
21547;BME280;41275;51.912;4.388;2023-05-07T10:35:30;101704.88;;;30.39;32.61
21547;BME280;41275;51.912;4.388;2023-05-07T10:40:53;101702.72;;;30.44;32.38
21547;BME280;41275;51.912;4.388;2023-05-07T10:51:37;101713.09;;;30.88;32.37
21547;BME280;41275;51.912;4.388;2023-05-07T11:08:22;101717.09;;;30.90;32.35
21547;BME280;41275;51.912;4.388;2023-05-07T11:13:47;101715.84;;;30.75;32.13
21547;BME280;41275;51.912;4.388;2023-05-07T11:19:11;101720.38;;;30.71;32.46
21547;BME280;41275;51.912;4.388;2023-05-07T11:24:39;101719.09;;;30.56;33.32
21547;BME280;41275;51.912;4.388;2023-05-07T11:30:00;101721.16;;;30.60;33.09
21547;BME280;41275;51.912;4.388;2023-05-07T11:35:22;101726.25;;;30.49;33.18
21547;BME280;41275;51.912;4.388;2023-05-07T11:40:57;101728.97;;;30.24;33.86
21547;BME280;41275;51.912;4.388;2023-05-07T11:46:19;101715.69;;;30.02;34.17
21547;BME280;41275;51.912;4.388;2023-05-07T11:51:41;101721.84;;;29.99;34.19
21547;BME280;41275;51.912;4.388;2023-05-07T11:57:03;101726.72;;;30.05;34.37
21547;BME280;41275;51.912;4.388;2023-05-07T12:02:25;101732.25;;;30.30;34.31
21547;BME280;41275;51.912;4.388;2023-05-07T12:07:46;101734.44;;;30.37;34.53
21547;BME280;41275;51.912;4.388;2023-05-07T12:13:18;101735.72;;;30.64;34.20
21547;BME280;41275;51.912;4.388;2023-05-07T12:18:39;101739.72;;;31.03;32.74
21547;BME280;41275;51.912;4.388;2023-05-07T12:24:01;101738.94;;;30.90;32.42
21547;BME280;41275;51.912;4.388;2023-05-07T12:29:22;101731.97;;;31.17;31.67
21547;BME280;41275;51.912;4.388;2023-05-07T12:34:45;101732.88;;;31.21;31.10
21547;BME280;41275;51.912;4.388;2023-05-07T12:40:10;101745.34;;;30.24;32.16
21547;BME280;41275;51.912;4.388;2023-05-07T12:45:36;101748.88;;;29.50;33.61
21547;BME280;41275;51.912;4.388;2023-05-07T12:51:00;101757.69;;;28.58;35.93
21547;BME280;41275;51.912;4.388;2023-05-07T12:56:22;101767.69;;;28.02;37.42
21547;BME280;41275;51.912;4.388;2023-05-07T13:01:44;101781.78;;;27.69;38.25
21547;BME280;41275;51.912;4.388;2023-05-07T13:07:05;101771.97;;;27.33;39.42
21547;BME280;41275;51.912;4.388;2023-05-07T13:12:27;101781.44;;;27.45;39.84
21547;BME280;41275;51.912;4.388;2023-05-07T13:17:48;101778.59;;;27.84;39.30
21547;BME280;41275;51.912;4.388;2023-05-07T13:23:09;101780.69;;;27.96;39.13
21547;BME280;41275;51.912;4.388;2023-05-07T13:28:30;101785.34;;;27.87;39.18
21547;BME280;41275;51.912;4.388;2023-05-07T13:33:51;101784.69;;;27.81;39.10
21547;BME280;41275;51.912;4.388;2023-05-07T13:39:15;101787.03;;;27.57;39.83
21547;BME280;41275;51.912;4.388;2023-05-07T13:44:36;101781.13;;;27.63;39.95
21547;BME280;41275;51.912;4.388;2023-05-07T13:49:57;101782.41;;;27.66;39.83
21547;BME280;41275;51.912;4.388;2023-05-07T13:55:20;101784.53;;;27.78;39.92
21547;BME280;41275;51.912;4.388;2023-05-07T14:00:41;101786.75;;;27.67;40.33
21547;BME280;41275;51.912;4.388;2023-05-07T14:06:03;101791.41;;;27.75;40.09
21547;BME280;41275;51.912;4.388;2023-05-07T14:11:24;101802.41;;;27.61;40.88
21547;BME280;41275;51.912;4.388;2023-05-07T14:16:46;101794.66;;;27.29;41.07
21547;BME280;41275;51.912;4.388;2023-05-07T14:22:07;101804.44;;;26.99;42.00
21547;BME280;41275;51.912;4.388;2023-05-07T14:27:28;101800.66;;;26.68;41.96
21547;BME280;41275;51.912;4.388;2023-05-07T14:32:50;101809.41;;;26.65;42.55
21547;BME280;41275;51.912;4.388;2023-05-07T14:38:11;101804.28;;;26.64;42.62
21547;BME280;41275;51.912;4.388;2023-05-07T14:43:32;101813.72;;;26.44;43.04
21547;BME280;41275;51.912;4.388;2023-05-07T14:48:53;101812.06;;;26.12;43.73
21547;BME280;41275;51.912;4.388;2023-05-07T14:54:18;101811.97;;;25.67;45.38
21547;BME280;41275;51.912;4.388;2023-05-07T14:59:39;101826.28;;;25.31;46.64
21547;BME280;41275;51.912;4.388;2023-05-07T15:05:00;101818.50;;;24.97;47.49
21547;BME280;41275;51.912;4.388;2023-05-07T15:10:22;101822.75;;;24.70;48.29
21547;BME280;41275;51.912;4.388;2023-05-07T15:15:44;101841.59;;;24.76;48.64
21547;BME280;41275;51.912;4.388;2023-05-07T15:21:05;101857.00;;;24.94;48.88
21547;BME280;41275;51.912;4.388;2023-05-07T15:26:27;101859.69;;;24.94;48.96
21547;BME280;41275;51.912;4.388;2023-05-07T15:31:48;101851.78;;;24.84;49.30
21547;BME280;41275;51.912;4.388;2023-05-07T15:37:09;101853.72;;;24.64;49.67
21547;BME280;41275;51.912;4.388;2023-05-07T15:42:30;101857.19;;;24.51;49.96
21547;BME280;41275;51.912;4.388;2023-05-07T15:47:51;101856.47;;;24.45;50.52
21547;BME280;41275;51.912;4.388;2023-05-07T15:53:13;101866.97;;;24.47;50.76
21547;BME280;41275;51.912;4.388;2023-05-07T15:58:34;101865.41;;;24.60;50.87
21547;BME280;41275;51.912;4.388;2023-05-07T16:03:56;101875.19;;;24.74;50.81
21547;BME280;41275;51.912;4.388;2023-05-07T16:09:17;101870.72;;;24.84;50.39
21547;BME280;41275;51.912;4.388;2023-05-07T16:14:39;101874.94;;;24.90;50.25
21547;BME280;41275;51.912;4.388;2023-05-07T16:20:01;101871.44;;;24.89;50.58
21547;BME280;41275;51.912;4.388;2023-05-07T16:25:22;101871.38;;;25.08;50.32
21547;BME280;41275;51.912;4.388;2023-05-07T16:30:43;101869.00;;;25.34;50.28
21547;BME280;41275;51.912;4.388;2023-05-07T16:36:05;101866.50;;;25.38;50.31
21547;BME280;41275;51.912;4.388;2023-05-07T16:41:27;101868.91;;;25.67;49.73
21547;BME280;41275;51.912;4.388;2023-05-07T16:46:49;101864.53;;;25.93;49.21
21547;BME280;41275;51.912;4.388;2023-05-07T16:52:10;101858.69;;;26.14;48.62
21547;BME280;41275;51.912;4.388;2023-05-07T16:57:31;101864.13;;;26.00;47.45
21547;BME280;41275;51.912;4.388;2023-05-07T17:02:52;101867.56;;;26.06;47.42
21547;BME280;41275;51.912;4.388;2023-05-07T17:08:14;101864.44;;;25.99;47.05
21547;BME280;41275;51.912;4.388;2023-05-07T17:13:35;101870.34;;;26.01;47.08
21547;BME280;41275;51.912;4.388;2023-05-07T17:18:57;101868.94;;;26.39;46.32
21547;BME280;41275;51.912;4.388;2023-05-07T17:24:18;101869.59;;;26.90;45.79
21547;BME280;41275;51.912;4.388;2023-05-07T17:29:39;101868.88;;;27.38;44.42
21547;BME280;41275;51.912;4.388;2023-05-07T17:35:00;101884.19;;;27.03;43.96
21547;BME280;41275;51.912;4.388;2023-05-07T17:40:22;101878.91;;;27.29;43.03
21547;BME280;41275;51.912;4.388;2023-05-07T17:45:43;101870.09;;;26.92;42.59
21547;BME280;41275;51.912;4.388;2023-05-07T17:51:04;101884.97;;;26.95;42.88
21547;BME280;41275;51.912;4.388;2023-05-07T17:56:25;101889.91;;;27.63;42.15
21547;BME280;41275;51.912;4.388;2023-05-07T18:01:46;101893.94;;;29.73;39.52
21547;BME280;41275;51.912;4.388;2023-05-07T18:07:08;101895.06;;;30.89;36.73
21547;BME280;41275;51.912;4.388;2023-05-07T18:12:29;101882.38;;;31.29;35.81
21547;BME280;41275;51.912;4.388;2023-05-07T18:17:51;101904.13;;;30.05;36.30
21547;BME280;41275;51.912;4.388;2023-05-07T18:23:12;101900.69;;;28.73;38.19
21547;BME280;41275;51.912;4.388;2023-05-07T18:28:33;101915.59;;;27.97;39.72
21547;BME280;41275;51.912;4.388;2023-05-07T18:33:54;101917.97;;;27.41;40.26
21547;BME280;41275;51.912;4.388;2023-05-07T18:39:15;101919.50;;;27.03;41.22
21547;BME280;41275;51.912;4.388;2023-05-07T18:44:37;101916.53;;;26.59;42.19
21547;BME280;41275;51.912;4.388;2023-05-07T18:49:58;101919.63;;;26.30;42.76
21547;BME280;41275;51.912;4.388;2023-05-07T18:55:21;101930.03;;;26.01;43.96
21547;BME280;41275;51.912;4.388;2023-05-07T19:00:42;101928.44;;;25.72;44.62
21547;BME280;41275;51.912;4.388;2023-05-07T19:06:03;101928.44;;;25.44;44.96
21547;BME280;41275;51.912;4.388;2023-05-07T19:11:25;101935.94;;;25.20;45.46
21547;BME280;41275;51.912;4.388;2023-05-07T19:16:47;101948.28;;;25.07;45.86
21547;BME280;41275;51.912;4.388;2023-05-07T19:22:08;101937.22;;;24.90;46.25
21547;BME280;41275;51.912;4.388;2023-05-07T19:27:29;101937.25;;;24.71;46.77
21547;BME280;41275;51.912;4.388;2023-05-07T19:32:50;101955.56;;;24.60;47.39
21547;BME280;41275;51.912;4.388;2023-05-07T19:38:11;101966.59;;;24.45;48.30
21547;BME280;41275;51.912;4.388;2023-05-07T19:43:33;101967.13;;;24.23;48.84
21547;BME280;41275;51.912;4.388;2023-05-07T19:48:57;101983.84;;;24.06;49.43
21547;BME280;41275;51.912;4.388;2023-05-07T19:54:19;101985.00;;;24.00;49.75
21547;BME280;41275;51.912;4.388;2023-05-07T19:59:40;101991.19;;;24.00;50.09
21547;BME280;41275;51.912;4.388;2023-05-07T20:05:01;101998.28;;;23.96;50.42
21547;BME280;41275;51.912;4.388;2023-05-07T20:10:23;102017.50;;;23.95;50.59
21547;BME280;41275;51.912;4.388;2023-05-07T20:15:44;102012.50;;;23.83;50.75
21547;BME280;41275;51.912;4.388;2023-05-07T20:21:06;102018.19;;;23.82;51.16
21547;BME280;41275;51.912;4.388;2023-05-07T20:26:27;102022.25;;;23.79;51.22
21547;BME280;41275;51.912;4.388;2023-05-07T20:31:51;102021.72;;;23.77;51.19
21547;BME280;41275;51.912;4.388;2023-05-07T20:37:12;102030.94;;;23.76;51.09
21547;BME280;41275;51.912;4.388;2023-05-07T20:42:34;102039.16;;;23.61;51.20
21547;BME280;41275;51.912;4.388;2023-05-07T20:47:56;102034.84;;;23.60;51.26
21547;BME280;41275;51.912;4.388;2023-05-07T20:53:17;102022.72;;;23.57;51.42
21547;BME280;41275;51.912;4.388;2023-05-07T20:58:38;102027.88;;;23.53;51.57
21547;BME280;41275;51.912;4.388;2023-05-07T21:04:00;102027.69;;;23.45;51.56
21547;BME280;41275;51.912;4.388;2023-05-07T21:09:21;102037.25;;;23.32;51.96
21547;BME280;41275;51.912;4.388;2023-05-07T21:14:42;102035.16;;;23.24;52.11
21547;BME280;41275;51.912;4.388;2023-05-07T21:20:04;102035.53;;;23.12;52.80
21547;BME280;41275;51.912;4.388;2023-05-07T21:25:25;102038.22;;;23.12;52.61
21547;BME280;41275;51.912;4.388;2023-05-07T21:30:47;102045.53;;;23.12;52.32
21547;BME280;41275;51.912;4.388;2023-05-07T21:36:08;102053.63;;;23.07;52.35
21547;BME280;41275;51.912;4.388;2023-05-07T21:41:30;102049.88;;;23.08;52.64
21547;BME280;41275;51.912;4.388;2023-05-07T21:46:51;102055.63;;;22.96;52.82
21547;BME280;41275;51.912;4.388;2023-05-07T21:52:15;102053.03;;;22.75;53.47
21547;BME280;41275;51.912;4.388;2023-05-07T21:57:36;102057.97;;;22.53;53.26
21547;BME280;41275;51.912;4.388;2023-05-07T22:02:59;102052.03;;;22.51;53.11
21547;BME280;41275;51.912;4.388;2023-05-07T22:08:21;102051.78;;;22.52;53.34
21547;BME280;41275;51.912;4.388;2023-05-07T22:13:42;102047.19;;;22.53;52.91
21547;BME280;41275;51.912;4.388;2023-05-07T22:19:03;102054.22;;;22.44;52.87
21547;BME280;41275;51.912;4.388;2023-05-07T22:24:25;102040.53;;;22.30;53.10
21547;BME280;41275;51.912;4.388;2023-05-07T22:29:46;102040.81;;;22.28;53.19
21547;BME280;41275;51.912;4.388;2023-05-07T22:35:08;102047.56;;;22.26;53.04
21547;BME280;41275;51.912;4.388;2023-05-07T22:40:29;102046.53;;;22.17;53.33
21547;BME280;41275;51.912;4.388;2023-05-07T22:45:58;102052.69;;;22.12;53.56
21547;BME280;41275;51.912;4.388;2023-05-07T22:51:20;102058.66;;;22.04;53.44
21547;BME280;41275;51.912;4.388;2023-05-07T22:56:42;102061.38;;;21.84;53.81
21547;BME280;41275;51.912;4.388;2023-05-07T23:02:03;102066.53;;;21.60;54.17
21547;BME280;41275;51.912;4.388;2023-05-07T23:07:24;102063.53;;;21.30;54.30
21547;BME280;41275;51.912;4.388;2023-05-07T23:12:46;102062.16;;;21.18;54.36
21547;BME280;41275;51.912;4.388;2023-05-07T23:18:09;102070.25;;;21.13;54.65
21547;BME280;41275;51.912;4.388;2023-05-07T23:23:33;102065.38;;;21.04;54.38
21547;BME280;41275;51.912;4.388;2023-05-07T23:28:54;102070.22;;;20.97;54.65
21547;BME280;41275;51.912;4.388;2023-05-07T23:34:15;102067.78;;;20.96;54.74
21547;BME280;41275;51.912;4.388;2023-05-07T23:39:43;102072.09;;;21.02;54.48
21547;BME280;41275;51.912;4.388;2023-05-07T23:45:05;102059.72;;;21.01;54.42
21547;BME280;41275;51.912;4.388;2023-05-07T23:50:26;102059.44;;;20.97;54.48
21547;BME280;41275;51.912;4.388;2023-05-07T23:55:47;102056.22;;;20.95;54.60
